IBET216 LEGR-GCLP
Flight info
| Callsign | IBET216 |
|---|---|
| Flight time | 2h 33m |
| Altitude | 33000 |
| Route | MAR DCT OSNAL DCT NALES DCT DONIA/N0463F350 DCT RUNAX UL82 IBALU DCT TERTO |
| Aircraft | B738/M-SDE2E3FGHIRWXY/LB1 |
Departure
| Time | 2026-05-08 05:42 |
|---|---|
| Airport | F.G.L. Airport Granada-Jaén Airport (LEGR) |
Arrival
| Time | 2026-05-08 08:16 |
|---|---|
| Airport | Gran Canaria Airport (GCLP) |
| Time | Latitude | Longitude | Altitude | Speed | Heading |
|---|---|---|---|---|---|
| 2026-05-08 05:28 | 37.18566 | -3.77681 | 1866 ft | 0 kts | 270° |
| 2026-05-08 05:33 | 37.18566 | -3.77662 | 1866 ft | 2 kts | 270° |
| 2026-05-08 05:33 | 37.18566 | -3.77644 | 1866 ft | 2 kts | 270° |
| 2026-05-08 05:33 | 37.18566 | -3.77625 | 1867 ft | 2 kts | 270° |
| 2026-05-08 05:33 | 37.18566 | -3.77612 | 1867 ft | 0 kts | 270° |
| 2026-05-08 05:37 | 37.18566 | -3.77613 | 1867 ft | 0 kts | 270° |
| 2026-05-08 05:37 | 37.18568 | -3.77663 | 1866 ft | 8 kts | 281° |
| 2026-05-08 05:37 | 37.18597 | -3.77730 | 1864 ft | 9 kts | 306° |
| 2026-05-08 05:37 | 37.18642 | -3.77803 | 1862 ft | 11 kts | 308° |
| 2026-05-08 05:38 | 37.18687 | -3.77891 | 1860 ft | 12 kts | 294° |
| 2026-05-08 05:38 | 37.18705 | -3.77996 | 1859 ft | 12 kts | 272° |
| 2026-05-08 05:38 | 37.18705 | -3.78120 | 1857 ft | 16 kts | 268° |
| 2026-05-08 05:38 | 37.18702 | -3.78282 | 1856 ft | 19 kts | 269° |
| 2026-05-08 05:39 | 37.18702 | -3.78469 | 1854 ft | 23 kts | 269° |
| 2026-05-08 05:39 | 37.18700 | -3.78692 | 1853 ft | 26 kts | 269° |
| 2026-05-08 05:39 | 37.18698 | -3.78927 | 1853 ft | 26 kts | 269° |
| 2026-05-08 05:39 | 37.18695 | -3.79143 | 1853 ft | 17 kts | 268° |
| 2026-05-08 05:40 | 37.18693 | -3.79272 | 1853 ft | 14 kts | 269° |
| 2026-05-08 05:40 | 37.18711 | -3.79388 | 1852 ft | 13 kts | 317° |
| 2026-05-08 05:40 | 37.18763 | -3.79397 | 1850 ft | 0 kts | 19° |
| 2026-05-08 05:41 | 37.18765 | -3.79396 | 1850 ft | 1 kts | 19° |
| 2026-05-08 05:41 | 37.18798 | -3.79378 | 1849 ft | 7 kts | 27° |
| 2026-05-08 05:41 | 37.18853 | -3.79322 | 1847 ft | 15 kts | 63° |
| 2026-05-08 05:42 | 37.18866 | -3.79088 | 1846 ft | 55 kts | 89° |
| 2026-05-08 05:42 | 37.18871 | -3.78274 | 1850 ft | 130 kts | 89° |
| 2026-05-08 05:42 | 37.18882 | -3.76904 | 1992 ft | 172 kts | 89° |
| 2026-05-08 05:42 | 37.18877 | -3.75455 | 2519 ft | 169 kts | 90° |
| 2026-05-08 05:43 | 37.18878 | -3.74000 | 3212 ft | 171 kts | 89° |
| 2026-05-08 05:43 | 37.18897 | -3.72466 | 3742 ft | 181 kts | 90° |
| 2026-05-08 05:43 | 37.18908 | -3.70864 | 4196 ft | 192 kts | 90° |
| 2026-05-08 05:43 | 37.18921 | -3.69159 | 4681 ft | 203 kts | 91° |
| 2026-05-08 05:44 | 37.18916 | -3.67286 | 5010 ft | 224 kts | 92° |
| 2026-05-08 05:44 | 37.18625 | -3.65307 | 5456 ft | 240 kts | 114° |
| 2026-05-08 05:44 | 37.17581 | -3.63689 | 6115 ft | 242 kts | 141° |
| 2026-05-08 05:44 | 37.16199 | -3.62492 | 6921 ft | 243 kts | 153° |
| 2026-05-08 05:45 | 37.14569 | -3.61929 | 7548 ft | 248 kts | 181° |
| 2026-05-08 05:45 | 37.12910 | -3.62319 | 8397 ft | 245 kts | 201° |
| 2026-05-08 05:45 | 37.11420 | -3.63295 | 9134 ft | 247 kts | 217° |
| 2026-05-08 05:45 | 37.10280 | -3.64898 | 9760 ft | 254 kts | 241° |
| 2026-05-08 05:46 | 37.09790 | -3.67008 | 10669 ft | 251 kts | 259° |
| 2026-05-08 05:46 | 37.09602 | -3.69139 | 11453 ft | 249 kts | 259° |
| 2026-05-08 05:46 | 37.09432 | -3.71288 | 12140 ft | 252 kts | 263° |
| 2026-05-08 05:46 | 37.09659 | -3.73480 | 12704 ft | 267 kts | 282° |
| 2026-05-08 05:47 | 37.10395 | -3.75695 | 13195 ft | 280 kts | 287° |
| 2026-05-08 05:47 | 37.11234 | -3.77939 | 13502 ft | 293 kts | 287° |
| 2026-05-08 05:47 | 37.12094 | -3.80336 | 13825 ft | 307 kts | 286° |
| 2026-05-08 05:47 | 37.12940 | -3.82815 | 14365 ft | 313 kts | 285° |
| 2026-05-08 05:48 | 37.13777 | -3.85323 | 14998 ft | 317 kts | 285° |
| 2026-05-08 05:48 | 37.14621 | -3.87877 | 15675 ft | 318 kts | 284° |
| 2026-05-08 05:48 | 37.15468 | -3.90454 | 16272 ft | 322 kts | 284° |
| 2026-05-08 05:48 | 37.16316 | -3.93028 | 16901 ft | 324 kts | 284° |
| 2026-05-08 05:49 | 37.17165 | -3.95655 | 17423 ft | 328 kts | 282° |
| 2026-05-08 05:49 | 37.17829 | -3.98386 | 17981 ft | 324 kts | 273° |
| 2026-05-08 05:49 | 37.18003 | -4.01122 | 18593 ft | 316 kts | 260° |
| 2026-05-08 05:49 | 37.17784 | -4.03830 | 19115 ft | 314 kts | 255° |
| 2026-05-08 05:50 | 37.17424 | -4.06552 | 19722 ft | 314 kts | 253° |
| 2026-05-08 05:50 | 37.17041 | -4.09230 | 20261 ft | 317 kts | 253° |
| 2026-05-08 05:50 | 37.16655 | -4.11952 | 20749 ft | 320 kts | 255° |
| 2026-05-08 05:50 | 37.16279 | -4.14694 | 21295 ft | 322 kts | 255° |
| 2026-05-08 05:51 | 37.15908 | -4.17452 | 21911 ft | 321 kts | 254° |
| 2026-05-08 05:51 | 37.15537 | -4.20218 | 22379 ft | 324 kts | 255° |
| 2026-05-08 05:51 | 37.15171 | -4.22973 | 22869 ft | 325 kts | 255° |
| 2026-05-08 05:51 | 37.14803 | -4.25768 | 23341 ft | 327 kts | 255° |
| 2026-05-08 05:52 | 37.14429 | -4.28590 | 23751 ft | 331 kts | 255° |
| 2026-05-08 05:52 | 37.14055 | -4.31412 | 24251 ft | 332 kts | 256° |
| 2026-05-08 05:52 | 37.13676 | -4.34267 | 24718 ft | 333 kts | 255° |
| 2026-05-08 05:52 | 37.13290 | -4.37158 | 25108 ft | 337 kts | 255° |
| 2026-05-08 05:53 | 37.12905 | -4.40027 | 25599 ft | 337 kts | 256° |
| 2026-05-08 05:53 | 37.12514 | -4.42938 | 25967 ft | 340 kts | 256° |
| 2026-05-08 05:53 | 37.12119 | -4.45854 | 26377 ft | 342 kts | 255° |
| 2026-05-08 05:53 | 37.11719 | -4.48786 | 26778 ft | 344 kts | 256° |
| 2026-05-08 05:54 | 37.11324 | -4.51702 | 27243 ft | 343 kts | 255° |
| 2026-05-08 05:54 | 37.10919 | -4.54696 | 27501 ft | 349 kts | 256° |
| 2026-05-08 05:54 | 37.10516 | -4.57656 | 27873 ft | 350 kts | 256° |
| 2026-05-08 05:54 | 37.10109 | -4.60656 | 28321 ft | 350 kts | 256° |
| 2026-05-08 05:55 | 37.09696 | -4.63672 | 28531 ft | 355 kts | 256° |
| 2026-05-08 05:55 | 37.09282 | -4.66704 | 29014 ft | 353 kts | 255° |
| 2026-05-08 05:55 | 37.08866 | -4.69754 | 29397 ft | 355 kts | 255° |
| 2026-05-08 05:55 | 37.08449 | -4.72791 | 29754 ft | 356 kts | 255° |
| 2026-05-08 05:56 | 37.08027 | -4.75858 | 30067 ft | 358 kts | 255° |
| 2026-05-08 05:56 | 37.07609 | -4.78899 | 30364 ft | 360 kts | 255° |
| 2026-05-08 05:56 | 37.07184 | -4.81987 | 30662 ft | 362 kts | 255° |
| 2026-05-08 05:56 | 37.06753 | -4.85101 | 30930 ft | 364 kts | 256° |
| 2026-05-08 05:57 | 37.06321 | -4.88233 | 31225 ft | 365 kts | 256° |
| 2026-05-08 05:57 | 37.05945 | -4.91392 | 31492 ft | 368 kts | 259° |
| 2026-05-08 05:57 | 37.05780 | -4.94573 | 31727 ft | 374 kts | 264° |
| 2026-05-08 05:57 | 37.05883 | -4.97849 | 31970 ft | 379 kts | 269° |
| 2026-05-08 05:58 | 37.06147 | -5.01135 | 32233 ft | 381 kts | 270° |
| 2026-05-08 05:58 | 37.06285 | -5.04449 | 32437 ft | 380 kts | 264° |
| 2026-05-08 05:58 | 37.06105 | -5.07722 | 32672 ft | 378 kts | 258° |
| 2026-05-08 05:58 | 37.05577 | -5.10902 | 32905 ft | 374 kts | 249° |
| 2026-05-08 05:59 | 37.04392 | -5.13780 | 32925 ft | 373 kts | 233° |
| 2026-05-08 05:59 | 37.00709 | -5.18341 | 32929 ft | 371 kts | 221° |
| 2026-05-08 06:00 | 36.96582 | -5.22165 | 32933 ft | 375 kts | 215° |
| 2026-05-08 06:00 | 36.94192 | -5.23580 | 32940 ft | 382 kts | 204° |
| 2026-05-08 06:00 | 36.91605 | -5.24400 | 32941 ft | 385 kts | 198° |
| 2026-05-08 06:01 | 36.86766 | -5.26820 | 32935 ft | 370 kts | 220° |
| 2026-05-08 06:01 | 36.83159 | -5.31347 | 32938 ft | 366 kts | 233° |
| 2026-05-08 06:02 | 36.80302 | -5.36532 | 32938 ft | 365 kts | 238° |
| 2026-05-08 06:02 | 36.77649 | -5.41913 | 32932 ft | 364 kts | 239° |
| 2026-05-08 06:03 | 36.75031 | -5.47309 | 32932 ft | 362 kts | 239° |
| 2026-05-08 06:03 | 36.72415 | -5.52668 | 32937 ft | 363 kts | 239° |
| 2026-05-08 06:04 | 36.69799 | -5.58000 | 32934 ft | 358 kts | 239° |
| 2026-05-08 06:04 | 36.67200 | -5.63281 | 32936 ft | 361 kts | 239° |
| 2026-05-08 06:05 | 36.64576 | -5.68604 | 32938 ft | 360 kts | 239° |
| 2026-05-08 06:05 | 36.61970 | -5.73873 | 32936 ft | 358 kts | 239° |
| 2026-05-08 06:06 | 36.59365 | -5.79139 | 32931 ft | 358 kts | 239° |
| 2026-05-08 06:06 | 36.56754 | -5.84412 | 32927 ft | 356 kts | 239° |
| 2026-05-08 06:07 | 36.54157 | -5.89646 | 32933 ft | 356 kts | 239° |
| 2026-05-08 06:07 | 36.51561 | -5.94863 | 32929 ft | 356 kts | 239° |
| 2026-05-08 06:08 | 36.48871 | -6.00046 | 32920 ft | 355 kts | 236° |
| 2026-05-08 06:08 | 36.45421 | -6.04461 | 32927 ft | 362 kts | 224° |
| 2026-05-08 06:09 | 36.41425 | -6.08294 | 32924 ft | 362 kts | 221° |
| 2026-05-08 06:09 | 36.37398 | -6.12046 | 32923 ft | 361 kts | 221° |
| 2026-05-08 06:10 | 36.33379 | -6.15837 | 32925 ft | 364 kts | 222° |
| 2026-05-08 06:10 | 36.29391 | -6.19625 | 32925 ft | 362 kts | 223° |
| 2026-05-08 06:11 | 36.25399 | -6.23422 | 32924 ft | 361 kts | 222° |
| 2026-05-08 06:11 | 36.21390 | -6.27237 | 32918 ft | 361 kts | 223° |
| 2026-05-08 06:12 | 36.17408 | -6.31019 | 32918 ft | 363 kts | 222° |
| 2026-05-08 06:12 | 36.13402 | -6.34820 | 32920 ft | 362 kts | 223° |
| 2026-05-08 06:13 | 36.09423 | -6.38590 | 32920 ft | 361 kts | 223° |
| 2026-05-08 06:13 | 36.05430 | -6.42372 | 32924 ft | 360 kts | 223° |
| 2026-05-08 06:14 | 36.01445 | -6.46141 | 32928 ft | 362 kts | 223° |
| 2026-05-08 06:14 | 35.97448 | -6.49914 | 32923 ft | 361 kts | 223° |
| 2026-05-08 06:15 | 35.93446 | -6.53688 | 32928 ft | 361 kts | 223° |
| 2026-05-08 06:15 | 35.89449 | -6.57448 | 32928 ft | 361 kts | 223° |
| 2026-05-08 06:16 | 35.85486 | -6.61203 | 32925 ft | 360 kts | 224° |
| 2026-05-08 06:16 | 35.81895 | -6.65496 | 32924 ft | 356 kts | 232° |
| 2026-05-08 06:17 | 35.77316 | -6.72668 | 32924 ft | 356 kts | 235° |
| 2026-05-08 06:17 | 35.74335 | -6.77513 | 32927 ft | 357 kts | 235° |
| 2026-05-08 06:18 | 35.71326 | -6.82353 | 32922 ft | 355 kts | 234° |
| 2026-05-08 06:18 | 35.68296 | -6.87191 | 32927 ft | 356 kts | 235° |
| 2026-05-08 06:19 | 35.65275 | -6.92002 | 32925 ft | 356 kts | 234° |
| 2026-05-08 06:19 | 35.62254 | -6.96798 | 32926 ft | 357 kts | 234° |
| 2026-05-08 06:20 | 35.59228 | -7.01596 | 32929 ft | 355 kts | 234° |
| 2026-05-08 06:20 | 35.56202 | -7.06386 | 32924 ft | 357 kts | 235° |
| 2026-05-08 06:21 | 35.53153 | -7.11208 | 32917 ft | 357 kts | 234° |
| 2026-05-08 06:21 | 35.50094 | -7.16037 | 32907 ft | 357 kts | 234° |
| 2026-05-08 06:22 | 35.47054 | -7.20831 | 32905 ft | 357 kts | 235° |
| 2026-05-08 06:22 | 35.44014 | -7.25619 | 32903 ft | 356 kts | 235° |
| 2026-05-08 06:23 | 35.40989 | -7.30371 | 32903 ft | 354 kts | 234° |
| 2026-05-08 06:23 | 35.37950 | -7.35146 | 32904 ft | 354 kts | 234° |
| 2026-05-08 06:24 | 35.34919 | -7.39902 | 32900 ft | 355 kts | 234° |
| 2026-05-08 06:24 | 35.31877 | -7.44666 | 32902 ft | 355 kts | 234° |
| 2026-05-08 06:25 | 35.28838 | -7.49414 | 32902 ft | 354 kts | 234° |
| 2026-05-08 06:25 | 35.25802 | -7.54155 | 32902 ft | 355 kts | 234° |
| 2026-05-08 06:26 | 35.22767 | -7.58890 | 32905 ft | 354 kts | 234° |
| 2026-05-08 06:26 | 35.19728 | -7.63623 | 32907 ft | 355 kts | 234° |
| 2026-05-08 06:27 | 35.16665 | -7.68384 | 32904 ft | 356 kts | 234° |
| 2026-05-08 06:27 | 35.13624 | -7.73110 | 32907 ft | 355 kts | 234° |
| 2026-05-08 06:28 | 35.10577 | -7.77835 | 32906 ft | 354 kts | 234° |
| 2026-05-08 06:28 | 35.07523 | -7.82569 | 32901 ft | 355 kts | 234° |
| 2026-05-08 06:29 | 35.04492 | -7.87257 | 32904 ft | 353 kts | 234° |
| 2026-05-08 06:29 | 35.01432 | -7.91988 | 32906 ft | 354 kts | 234° |
| 2026-05-08 06:30 | 34.98378 | -7.96701 | 32900 ft | 354 kts | 234° |
| 2026-05-08 06:30 | 34.95334 | -8.01388 | 32904 ft | 354 kts | 234° |
| 2026-05-08 06:31 | 34.92287 | -8.06077 | 32909 ft | 354 kts | 234° |
| 2026-05-08 06:31 | 34.89224 | -8.10784 | 32908 ft | 353 kts | 234° |
| 2026-05-08 06:32 | 34.86171 | -8.15471 | 32902 ft | 354 kts | 234° |
| 2026-05-08 06:32 | 34.83101 | -8.20173 | 32901 ft | 355 kts | 234° |
| 2026-05-08 06:33 | 34.80048 | -8.24846 | 32913 ft | 353 kts | 234° |
| 2026-05-08 06:33 | 34.76995 | -8.29513 | 32915 ft | 354 kts | 234° |
| 2026-05-08 06:34 | 34.73949 | -8.34160 | 32922 ft | 353 kts | 234° |
| 2026-05-08 06:34 | 34.70892 | -8.38819 | 32913 ft | 353 kts | 234° |
| 2026-05-08 06:35 | 34.67824 | -8.43492 | 32923 ft | 353 kts | 234° |
| 2026-05-08 06:35 | 34.64767 | -8.48142 | 32920 ft | 352 kts | 234° |
| 2026-05-08 06:36 | 34.61724 | -8.52763 | 32919 ft | 353 kts | 234° |
| 2026-05-08 06:36 | 34.58666 | -8.57397 | 32917 ft | 352 kts | 234° |
| 2026-05-08 06:37 | 34.55604 | -8.62034 | 32922 ft | 353 kts | 234° |
| 2026-05-08 06:37 | 34.52542 | -8.66665 | 32914 ft | 352 kts | 234° |
| 2026-05-08 06:38 | 34.49473 | -8.71301 | 32915 ft | 352 kts | 234° |
| 2026-05-08 06:38 | 34.46421 | -8.75905 | 32921 ft | 352 kts | 234° |
| 2026-05-08 06:39 | 34.43087 | -8.80288 | 32916 ft | 357 kts | 226° |
| 2026-05-08 06:39 | 34.39238 | -8.84069 | 32922 ft | 359 kts | 223° |
| 2026-05-08 06:40 | 34.35300 | -8.87763 | 32917 ft | 357 kts | 223° |
| 2026-05-08 06:40 | 34.31385 | -8.91475 | 32916 ft | 358 kts | 224° |
| 2026-05-08 06:41 | 34.27484 | -8.95204 | 32920 ft | 357 kts | 224° |
| 2026-05-08 06:41 | 34.23609 | -8.98914 | 32922 ft | 358 kts | 224° |
| 2026-05-08 06:42 | 34.19699 | -9.02655 | 32909 ft | 356 kts | 224° |
| 2026-05-08 06:42 | 34.15831 | -9.06353 | 32903 ft | 356 kts | 224° |
| 2026-05-08 06:43 | 34.11969 | -9.10044 | 32903 ft | 356 kts | 224° |
| 2026-05-08 06:43 | 34.08087 | -9.13750 | 32904 ft | 357 kts | 225° |
| 2026-05-08 06:44 | 34.04200 | -9.17454 | 32904 ft | 355 kts | 224° |
| 2026-05-08 06:44 | 34.00316 | -9.21149 | 32902 ft | 354 kts | 224° |
| 2026-05-08 06:45 | 33.96460 | -9.24814 | 32900 ft | 354 kts | 224° |
| 2026-05-08 06:45 | 33.92575 | -9.28504 | 32913 ft | 355 kts | 224° |
| 2026-05-08 06:46 | 33.88699 | -9.32179 | 32905 ft | 355 kts | 225° |
| 2026-05-08 06:46 | 33.84825 | -9.35851 | 32893 ft | 353 kts | 225° |
| 2026-05-08 06:47 | 33.80970 | -9.39496 | 32916 ft | 355 kts | 225° |
| 2026-05-08 06:47 | 33.77097 | -9.43154 | 32907 ft | 352 kts | 225° |
| 2026-05-08 06:48 | 33.73237 | -9.46800 | 32909 ft | 354 kts | 225° |
| 2026-05-08 06:48 | 33.69378 | -9.50440 | 32901 ft | 352 kts | 225° |
| 2026-05-08 06:49 | 33.65523 | -9.54069 | 32911 ft | 351 kts | 225° |
| 2026-05-08 06:49 | 33.61660 | -9.57701 | 32910 ft | 352 kts | 225° |
| 2026-05-08 06:50 | 33.57812 | -9.61316 | 32914 ft | 351 kts | 225° |
| 2026-05-08 06:50 | 33.53957 | -9.64932 | 32914 ft | 351 kts | 225° |
| 2026-05-08 06:51 | 33.50090 | -9.68558 | 32908 ft | 352 kts | 225° |
| 2026-05-08 06:51 | 33.46257 | -9.72144 | 32915 ft | 351 kts | 225° |
| 2026-05-08 06:52 | 33.42415 | -9.75735 | 32910 ft | 350 kts | 225° |
| 2026-05-08 06:52 | 33.38552 | -9.79346 | 32920 ft | 352 kts | 225° |
| 2026-05-08 06:53 | 33.34700 | -9.82936 | 32916 ft | 351 kts | 225° |
| 2026-05-08 06:53 | 33.30865 | -9.86512 | 32917 ft | 351 kts | 225° |
| 2026-05-08 06:54 | 33.27007 | -9.90102 | 32922 ft | 352 kts | 225° |
| 2026-05-08 06:54 | 33.23143 | -9.93694 | 32924 ft | 351 kts | 225° |
| 2026-05-08 06:55 | 33.19292 | -9.97270 | 32920 ft | 351 kts | 225° |
| 2026-05-08 06:55 | 33.15456 | -10.00828 | 32918 ft | 351 kts | 225° |
| 2026-05-08 06:56 | 33.11595 | -10.04404 | 32924 ft | 351 kts | 226° |
| 2026-05-08 06:56 | 33.07736 | -10.07976 | 32929 ft | 351 kts | 225° |
| 2026-05-08 06:57 | 33.03885 | -10.11535 | 32924 ft | 352 kts | 226° |
| 2026-05-08 06:57 | 33.00025 | -10.15098 | 32928 ft | 351 kts | 226° |
| 2026-05-08 06:58 | 32.96164 | -10.18660 | 32922 ft | 350 kts | 225° |
| 2026-05-08 06:58 | 32.92306 | -10.22214 | 32923 ft | 351 kts | 225° |
| 2026-05-08 06:59 | 32.88461 | -10.25755 | 32925 ft | 351 kts | 226° |
| 2026-05-08 06:59 | 32.84582 | -10.29319 | 32923 ft | 352 kts | 226° |
| 2026-05-08 07:00 | 32.80706 | -10.32877 | 32925 ft | 353 kts | 225° |
| 2026-05-08 07:00 | 32.76836 | -10.36425 | 32928 ft | 352 kts | 226° |
| 2026-05-08 07:01 | 32.72941 | -10.39992 | 32926 ft | 352 kts | 225° |
| 2026-05-08 07:01 | 32.69027 | -10.43575 | 32928 ft | 353 kts | 225° |
| 2026-05-08 07:02 | 32.65142 | -10.47122 | 32930 ft | 351 kts | 225° |
| 2026-05-08 07:02 | 32.61254 | -10.50672 | 32927 ft | 353 kts | 225° |
| 2026-05-08 07:03 | 32.57342 | -10.54241 | 32930 ft | 354 kts | 226° |
| 2026-05-08 07:03 | 32.53424 | -10.57812 | 32931 ft | 354 kts | 225° |
| 2026-05-08 07:04 | 32.49522 | -10.61359 | 32929 ft | 354 kts | 225° |
| 2026-05-08 07:04 | 32.45589 | -10.64931 | 32926 ft | 353 kts | 226° |
| 2026-05-08 07:05 | 32.41700 | -10.68463 | 32928 ft | 355 kts | 225° |
| 2026-05-08 07:05 | 32.37799 | -10.71996 | 32928 ft | 354 kts | 225° |
| 2026-05-08 07:06 | 32.33866 | -10.75562 | 32933 ft | 356 kts | 225° |
| 2026-05-08 07:06 | 32.29926 | -10.79127 | 32938 ft | 357 kts | 225° |
| 2026-05-08 07:07 | 32.25970 | -10.82702 | 32942 ft | 355 kts | 225° |
| 2026-05-08 07:07 | 32.22032 | -10.86254 | 32932 ft | 357 kts | 225° |
| 2026-05-08 07:08 | 32.18075 | -10.89821 | 32941 ft | 358 kts | 225° |
| 2026-05-08 07:08 | 32.14125 | -10.93378 | 32943 ft | 358 kts | 225° |
| 2026-05-08 07:09 | 32.10155 | -10.96949 | 32940 ft | 358 kts | 225° |
| 2026-05-08 07:09 | 32.06176 | -11.00526 | 32936 ft | 357 kts | 225° |
| 2026-05-08 07:10 | 32.02234 | -11.04063 | 32936 ft | 358 kts | 225° |
| 2026-05-08 07:10 | 31.98251 | -11.07635 | 32945 ft | 359 kts | 225° |
| 2026-05-08 07:11 | 31.94245 | -11.11221 | 32943 ft | 358 kts | 225° |
| 2026-05-08 07:11 | 31.90271 | -11.14774 | 32943 ft | 357 kts | 225° |
| 2026-05-08 07:12 | 31.86306 | -11.18321 | 32938 ft | 360 kts | 225° |
| 2026-05-08 07:12 | 31.82333 | -11.21868 | 32927 ft | 356 kts | 225° |
| 2026-05-08 07:13 | 31.78372 | -11.25404 | 32933 ft | 360 kts | 225° |
| 2026-05-08 07:13 | 31.74387 | -11.28950 | 32931 ft | 358 kts | 225° |
| 2026-05-08 07:14 | 31.70435 | -11.32462 | 32926 ft | 356 kts | 225° |
| 2026-05-08 07:14 | 31.66452 | -11.36006 | 32934 ft | 357 kts | 225° |
| 2026-05-08 07:15 | 31.62497 | -11.39515 | 32931 ft | 357 kts | 225° |
| 2026-05-08 07:15 | 31.58489 | -11.43068 | 32933 ft | 358 kts | 225° |
| 2026-05-08 07:16 | 31.54516 | -11.46583 | 32934 ft | 357 kts | 225° |
| 2026-05-08 07:16 | 31.50557 | -11.50088 | 32941 ft | 358 kts | 224° |
| 2026-05-08 07:17 | 31.46574 | -11.53608 | 32944 ft | 358 kts | 225° |
| 2026-05-08 07:17 | 31.42595 | -11.57120 | 32955 ft | 358 kts | 224° |
| 2026-05-08 07:18 | 31.38607 | -11.60635 | 32947 ft | 358 kts | 225° |
| 2026-05-08 07:18 | 31.34598 | -11.64167 | 32948 ft | 358 kts | 225° |
| 2026-05-08 07:19 | 31.30606 | -11.67680 | 32948 ft | 359 kts | 224° |
| 2026-05-08 07:19 | 31.26635 | -11.71168 | 32940 ft | 357 kts | 224° |
| 2026-05-08 07:20 | 31.22628 | -11.74688 | 32948 ft | 359 kts | 224° |
| 2026-05-08 07:20 | 31.18666 | -11.78160 | 32948 ft | 358 kts | 224° |
| 2026-05-08 07:21 | 31.14646 | -11.81686 | 32946 ft | 361 kts | 224° |
| 2026-05-08 07:21 | 31.10656 | -11.85175 | 32939 ft | 358 kts | 224° |
| 2026-05-08 07:22 | 31.06659 | -11.88674 | 32947 ft | 359 kts | 224° |
| 2026-05-08 07:22 | 31.02659 | -11.92164 | 32944 ft | 360 kts | 224° |
| 2026-05-08 07:23 | 30.98647 | -11.95666 | 32947 ft | 359 kts | 224° |
| 2026-05-08 07:23 | 30.94623 | -11.99173 | 32944 ft | 360 kts | 224° |
| 2026-05-08 07:24 | 30.90625 | -12.02655 | 32948 ft | 361 kts | 224° |
| 2026-05-08 07:24 | 30.86571 | -12.06180 | 32944 ft | 363 kts | 224° |
| 2026-05-08 07:25 | 30.82551 | -12.09671 | 32940 ft | 361 kts | 224° |
| 2026-05-08 07:26 | 30.76481 | -12.14937 | 32950 ft | 364 kts | 224° |
| 2026-05-08 07:26 | 30.72433 | -12.18439 | 32949 ft | 361 kts | 223° |
| 2026-05-08 07:27 | 30.68410 | -12.21921 | 32951 ft | 362 kts | 224° |
| 2026-05-08 07:27 | 30.64379 | -12.25408 | 32951 ft | 364 kts | 223° |
| 2026-05-08 07:28 | 30.60312 | -12.28918 | 32953 ft | 364 kts | 224° |
| 2026-05-08 07:28 | 30.56251 | -12.32422 | 32951 ft | 363 kts | 223° |
| 2026-05-08 07:29 | 30.52199 | -12.35911 | 32951 ft | 364 kts | 223° |
| 2026-05-08 07:29 | 30.48150 | -12.39392 | 32947 ft | 362 kts | 224° |
| 2026-05-08 07:30 | 30.44081 | -12.42892 | 32947 ft | 363 kts | 223° |
| 2026-05-08 07:30 | 30.40021 | -12.46380 | 32945 ft | 363 kts | 223° |
| 2026-05-08 07:31 | 30.35963 | -12.49862 | 32946 ft | 364 kts | 223° |
| 2026-05-08 07:31 | 30.31895 | -12.53349 | 32946 ft | 364 kts | 223° |
| 2026-05-08 07:32 | 30.27809 | -12.56847 | 32946 ft | 364 kts | 223° |
| 2026-05-08 07:32 | 30.23747 | -12.60322 | 32947 ft | 366 kts | 223° |
| 2026-05-08 07:33 | 30.19670 | -12.63804 | 32945 ft | 364 kts | 223° |
| 2026-05-08 07:33 | 30.15592 | -12.67283 | 32946 ft | 365 kts | 223° |
| 2026-05-08 07:34 | 30.11503 | -12.70771 | 32947 ft | 366 kts | 223° |
| 2026-05-08 07:34 | 30.07406 | -12.74265 | 32946 ft | 365 kts | 223° |
| 2026-05-08 07:35 | 30.03318 | -12.77761 | 32945 ft | 367 kts | 223° |
| 2026-05-08 07:35 | 29.99207 | -12.81270 | 32945 ft | 365 kts | 223° |
| 2026-05-08 07:36 | 29.95140 | -12.84743 | 32954 ft | 367 kts | 223° |
| 2026-05-08 07:36 | 29.91031 | -12.88244 | 32960 ft | 364 kts | 223° |
| 2026-05-08 07:37 | 29.86953 | -12.91713 | 32968 ft | 365 kts | 222° |
| 2026-05-08 07:37 | 29.82872 | -12.95185 | 32967 ft | 366 kts | 223° |
| 2026-05-08 07:38 | 29.78780 | -12.98663 | 32967 ft | 367 kts | 223° |
| 2026-05-08 07:38 | 29.74660 | -13.02158 | 32966 ft | 367 kts | 223° |
| 2026-05-08 07:39 | 29.70557 | -13.05638 | 32963 ft | 367 kts | 222° |
| 2026-05-08 07:39 | 29.66454 | -13.09110 | 32962 ft | 367 kts | 223° |
| 2026-05-08 07:40 | 29.62324 | -13.12605 | 32967 ft | 368 kts | 222° |
| 2026-05-08 07:40 | 29.58222 | -13.16070 | 32968 ft | 369 kts | 223° |
| 2026-05-08 07:41 | 29.54081 | -13.19564 | 32966 ft | 367 kts | 222° |
| 2026-05-08 07:41 | 29.49974 | -13.23027 | 32967 ft | 369 kts | 223° |
| 2026-05-08 07:42 | 29.45829 | -13.26520 | 32967 ft | 369 kts | 223° |
| 2026-05-08 07:42 | 29.41689 | -13.30005 | 32966 ft | 368 kts | 223° |
| 2026-05-08 07:43 | 29.37563 | -13.33474 | 32967 ft | 368 kts | 223° |
| 2026-05-08 07:43 | 29.33435 | -13.36939 | 32967 ft | 367 kts | 222° |
| 2026-05-08 07:44 | 29.29302 | -13.40410 | 32968 ft | 369 kts | 223° |
| 2026-05-08 07:44 | 29.25186 | -13.43858 | 32969 ft | 368 kts | 222° |
| 2026-05-08 07:45 | 29.21055 | -13.47316 | 32972 ft | 370 kts | 223° |
| 2026-05-08 07:45 | 29.16938 | -13.50872 | 32971 ft | 368 kts | 226° |
| 2026-05-08 07:46 | 29.13280 | -13.54923 | 32971 ft | 364 kts | 231° |
| 2026-05-08 07:46 | 29.09833 | -13.59160 | 32974 ft | 364 kts | 232° |
| 2026-05-08 07:47 | 29.06410 | -13.63386 | 32975 ft | 365 kts | 232° |
| 2026-05-08 07:47 | 29.02946 | -13.67618 | 32974 ft | 364 kts | 231° |
| 2026-05-08 07:48 | 28.99483 | -13.71826 | 32973 ft | 364 kts | 231° |
| 2026-05-08 07:48 | 28.96009 | -13.76036 | 32977 ft | 365 kts | 231° |
| 2026-05-08 07:49 | 28.92531 | -13.80242 | 32971 ft | 364 kts | 231° |
| 2026-05-08 07:49 | 28.89048 | -13.84452 | 32973 ft | 366 kts | 231° |
| 2026-05-08 07:50 | 28.85544 | -13.88683 | 32970 ft | 366 kts | 231° |
| 2026-05-08 07:50 | 28.82051 | -13.92895 | 32970 ft | 365 kts | 231° |
| 2026-05-08 07:51 | 28.78567 | -13.97092 | 32966 ft | 365 kts | 231° |
| 2026-05-08 07:51 | 28.75059 | -14.01314 | 32967 ft | 367 kts | 231° |
| 2026-05-08 07:52 | 28.71568 | -14.05510 | 32972 ft | 366 kts | 231° |
| 2026-05-08 07:52 | 28.68013 | -14.09786 | 32889 ft | 379 kts | 231° |
| 2026-05-08 07:52 | 28.66207 | -14.11955 | 32503 ft | 377 kts | 231° |
| 2026-05-08 07:53 | 28.64406 | -14.14113 | 31971 ft | 374 kts | 231° |
| 2026-05-08 07:53 | 28.62619 | -14.16254 | 31309 ft | 374 kts | 231° |
| 2026-05-08 07:53 | 28.60814 | -14.18415 | 30728 ft | 372 kts | 231° |
| 2026-05-08 07:53 | 28.59039 | -14.20537 | 30175 ft | 369 kts | 231° |
| 2026-05-08 07:54 | 28.57301 | -14.22615 | 29606 ft | 367 kts | 230° |
| 2026-05-08 07:54 | 28.55531 | -14.24733 | 29010 ft | 365 kts | 230° |
| 2026-05-08 07:54 | 28.53793 | -14.26811 | 28431 ft | 363 kts | 230° |
| 2026-05-08 07:54 | 28.52065 | -14.28877 | 27849 ft | 361 kts | 231° |
| 2026-05-08 07:55 | 28.50345 | -14.30930 | 27271 ft | 359 kts | 231° |
| 2026-05-08 07:55 | 28.48635 | -14.32968 | 26698 ft | 357 kts | 231° |
| 2026-05-08 07:55 | 28.46945 | -14.34984 | 26130 ft | 355 kts | 230° |
| 2026-05-08 07:55 | 28.45255 | -14.37001 | 25555 ft | 353 kts | 231° |
| 2026-05-08 07:56 | 28.43566 | -14.39014 | 24989 ft | 351 kts | 231° |
| 2026-05-08 07:56 | 28.41896 | -14.41005 | 24424 ft | 350 kts | 230° |
| 2026-05-08 07:56 | 28.40219 | -14.43002 | 23867 ft | 348 kts | 230° |
| 2026-05-08 07:56 | 28.38552 | -14.44987 | 23309 ft | 346 kts | 230° |
| 2026-05-08 07:57 | 28.36888 | -14.46967 | 22753 ft | 345 kts | 230° |
| 2026-05-08 07:57 | 28.35260 | -14.48903 | 22211 ft | 344 kts | 230° |
| 2026-05-08 07:57 | 28.33592 | -14.50888 | 21644 ft | 344 kts | 230° |
| 2026-05-08 07:57 | 28.31961 | -14.52827 | 21091 ft | 343 kts | 230° |
| 2026-05-08 07:58 | 28.30306 | -14.54792 | 20525 ft | 342 kts | 230° |
| 2026-05-08 07:58 | 28.28684 | -14.56717 | 19976 ft | 342 kts | 230° |
| 2026-05-08 07:58 | 28.27035 | -14.58673 | 19416 ft | 341 kts | 230° |
| 2026-05-08 07:58 | 28.25402 | -14.60611 | 18856 ft | 340 kts | 230° |
| 2026-05-08 07:59 | 28.23789 | -14.62525 | 18307 ft | 338 kts | 230° |
| 2026-05-08 07:59 | 28.22155 | -14.64463 | 17756 ft | 337 kts | 230° |
| 2026-05-08 07:59 | 28.20539 | -14.66376 | 17291 ft | 333 kts | 229° |
| 2026-05-08 07:59 | 28.18939 | -14.68266 | 17051 ft | 330 kts | 229° |
| 2026-05-08 08:00 | 28.17348 | -14.70144 | 16721 ft | 334 kts | 229° |
| 2026-05-08 08:00 | 28.15756 | -14.72025 | 16253 ft | 333 kts | 229° |
| 2026-05-08 08:00 | 28.14164 | -14.73898 | 15738 ft | 322 kts | 229° |
| 2026-05-08 08:00 | 28.12656 | -14.75673 | 15267 ft | 311 kts | 229° |
| 2026-05-08 08:01 | 28.11187 | -14.77404 | 14789 ft | 301 kts | 229° |
| 2026-05-08 08:01 | 28.09760 | -14.79088 | 14416 ft | 292 kts | 228° |
| 2026-05-08 08:01 | 28.08353 | -14.80751 | 13976 ft | 292 kts | 228° |
| 2026-05-08 08:01 | 28.06940 | -14.82422 | 13544 ft | 292 kts | 228° |
| 2026-05-08 08:02 | 28.05553 | -14.84057 | 13154 ft | 290 kts | 228° |
| 2026-05-08 08:02 | 28.04148 | -14.85712 | 12740 ft | 289 kts | 228° |
| 2026-05-08 08:02 | 28.02771 | -14.87332 | 12353 ft | 288 kts | 228° |
| 2026-05-08 08:02 | 28.01378 | -14.88970 | 11942 ft | 287 kts | 228° |
| 2026-05-08 08:03 | 28.00003 | -14.90585 | 11538 ft | 286 kts | 228° |
| 2026-05-08 08:03 | 27.98644 | -14.92183 | 11197 ft | 283 kts | 228° |
| 2026-05-08 08:03 | 27.97304 | -14.93761 | 11008 ft | 272 kts | 228° |
| 2026-05-08 08:03 | 27.96020 | -14.95284 | 10744 ft | 259 kts | 230° |
| 2026-05-08 08:04 | 27.94955 | -14.96865 | 10546 ft | 247 kts | 244° |
| 2026-05-08 08:04 | 27.94520 | -14.98700 | 10336 ft | 246 kts | 269° |
| 2026-05-08 08:04 | 27.94815 | -15.00612 | 9927 ft | 251 kts | 289° |
| 2026-05-08 08:04 | 27.95648 | -15.02364 | 9547 ft | 254 kts | 305° |
| 2026-05-08 08:05 | 27.96888 | -15.03758 | 9217 ft | 251 kts | 317° |
| 2026-05-08 08:05 | 27.98234 | -15.04958 | 8946 ft | 240 kts | 319° |
| 2026-05-08 08:05 | 27.99520 | -15.06098 | 8678 ft | 230 kts | 318° |
| 2026-05-08 08:05 | 28.00744 | -15.07225 | 8424 ft | 221 kts | 317° |
| 2026-05-08 08:06 | 28.01904 | -15.08321 | 8194 ft | 214 kts | 316° |
| 2026-05-08 08:06 | 28.03041 | -15.09406 | 7941 ft | 212 kts | 317° |
| 2026-05-08 08:06 | 28.04245 | -15.10355 | 7705 ft | 214 kts | 332° |
| 2026-05-08 08:06 | 28.05711 | -15.10681 | 7463 ft | 221 kts | 2° |
| 2026-05-08 08:07 | 28.07187 | -15.10224 | 7229 ft | 223 kts | 20° |
| 2026-05-08 08:07 | 28.08623 | -15.09557 | 6984 ft | 222 kts | 15° |
| 2026-05-08 08:07 | 28.10122 | -15.09334 | 6758 ft | 215 kts | 347° |
| 2026-05-08 08:07 | 28.11493 | -15.09932 | 6542 ft | 211 kts | 322° |
| 2026-05-08 08:08 | 28.12585 | -15.11006 | 6286 ft | 206 kts | 307° |
| 2026-05-08 08:08 | 28.13311 | -15.12384 | 6056 ft | 202 kts | 290° |
| 2026-05-08 08:08 | 28.13793 | -15.13875 | 5817 ft | 201 kts | 288° |
| 2026-05-08 08:08 | 28.14271 | -15.15344 | 5602 ft | 197 kts | 289° |
| 2026-05-08 08:09 | 28.14690 | -15.16773 | 5478 ft | 185 kts | 280° |
| 2026-05-08 08:09 | 28.14649 | -15.18176 | 5345 ft | 178 kts | 255° |
| 2026-05-08 08:09 | 28.14273 | -15.19498 | 5133 ft | 175 kts | 253° |
| 2026-05-08 08:09 | 28.13924 | -15.20829 | 4931 ft | 176 kts | 256° |
| 2026-05-08 08:10 | 28.13606 | -15.22162 | 4730 ft | 177 kts | 256° |
| 2026-05-08 08:10 | 28.13287 | -15.23513 | 4525 ft | 176 kts | 256° |
| 2026-05-08 08:10 | 28.12972 | -15.24832 | 4325 ft | 175 kts | 256° |
| 2026-05-08 08:10 | 28.12648 | -15.26171 | 4124 ft | 175 kts | 256° |
| 2026-05-08 08:11 | 28.12328 | -15.27493 | 3925 ft | 174 kts | 256° |
| 2026-05-08 08:11 | 28.12010 | -15.28811 | 3752 ft | 173 kts | 256° |
| 2026-05-08 08:11 | 28.11608 | -15.30098 | 3608 ft | 177 kts | 242° |
| 2026-05-08 08:11 | 28.10715 | -15.31029 | 3396 ft | 180 kts | 203° |
| 2026-05-08 08:12 | 28.09473 | -15.31309 | 3179 ft | 176 kts | 192° |
| 2026-05-08 08:12 | 28.08334 | -15.31717 | 2914 ft | 169 kts | 207° |
| 2026-05-08 08:12 | 28.07305 | -15.32354 | 2782 ft | 168 kts | 210° |
| 2026-05-08 08:12 | 28.06246 | -15.32911 | 2526 ft | 170 kts | 203° |
| 2026-05-08 08:13 | 28.05145 | -15.33397 | 2301 ft | 169 kts | 202° |
| 2026-05-08 08:13 | 28.04042 | -15.33879 | 2067 ft | 169 kts | 203° |
| 2026-05-08 08:13 | 28.02952 | -15.34363 | 1893 ft | 165 kts | 202° |
| 2026-05-08 08:13 | 28.01869 | -15.34840 | 1599 ft | 164 kts | 203° |
| 2026-05-08 08:14 | 28.00833 | -15.35295 | 1381 ft | 153 kts | 203° |
| 2026-05-08 08:14 | 27.99846 | -15.35732 | 1198 ft | 154 kts | 203° |
| 2026-05-08 08:14 | 27.98846 | -15.36172 | 983 ft | 151 kts | 203° |
| 2026-05-08 08:14 | 27.97857 | -15.36607 | 787 ft | 154 kts | 203° |
| 2026-05-08 08:15 | 27.96870 | -15.37043 | 566 ft | 152 kts | 204° |
| 2026-05-08 08:15 | 27.95899 | -15.37455 | 399 ft | 149 kts | 202° |
| 2026-05-08 08:15 | 27.94943 | -15.37874 | 211 ft | 144 kts | 203° |
| 2026-05-08 08:15 | 27.94044 | -15.38268 | 74 ft | 124 kts | 204° |
| 2026-05-08 08:16 | 27.93452 | -15.38543 | 81 ft | 62 kts | 204° |
| 2026-05-08 08:16 | 27.93206 | -15.38684 | 82 ft | 19 kts | 223° |
| 2026-05-08 08:16 | 27.93127 | -15.38767 | 85 ft | 13 kts | 224° |
| 2026-05-08 08:16 | 27.93096 | -15.38844 | 90 ft | 7 kts | 287° |
| 2026-05-08 08:17 | 27.93124 | -15.38872 | 93 ft | 7 kts | 343° |
| 2026-05-08 08:17 | 27.93179 | -15.38871 | 95 ft | 7 kts | 12° |
| 2026-05-08 08:17 | 27.93240 | -15.38849 | 96 ft | 14 kts | 21° |
| 2026-05-08 08:17 | 27.93332 | -15.38811 | 97 ft | 13 kts | 10° |
| 2026-05-08 08:18 | 27.93409 | -15.38820 | 101 ft | 8 kts | 335° |
| 2026-05-08 08:18 | 27.93444 | -15.38850 | 104 ft | 6 kts | 316° |
| 2026-05-08 08:18 | 27.93482 | -15.38904 | 109 ft | 6 kts | 308° |
| 2026-05-08 08:18 | 27.93501 | -15.38928 | 111 ft | 4 kts | 305° |
| 2026-05-08 08:19 | 27.93512 | -15.38952 | 113 ft | 1 kts | 296° |
| 2026-05-08 08:19 | 27.93514 | -15.38956 | 113 ft | 0 kts | 295° |